Relevés horaires Eggishorn (Suisse)


Relevés horaires à Eggishorn - Dimanche 11 Août 2019
Heure UTC1 Température [°C] Vent [km/h] Hum. [%] Pres.4 [hPa] Visi. [Km] Nébu. [octa] Préc.5 [mm] Cond.
2m. Res. Ros. Dir.2 Vit. Moy. Raf.3
23:00 8.4 6.5 7.5 S 11.1 -- 14.8 94 700(-0.3/3h) -- -- -- --
22:00 8.3 7.6 6.9 ESE 5.6 -- 27.8 91 700(-0.2/3h) -- -- -- --
21:00 8.1 4.9 7.1 SSO 20.4 -- 38.9 93 700(-0.1/3h) -- -- -- --
20:00 8.7 6.3 8.7 S 14.8 -- 27.8 100 700(1.1/3h) -- -- -- --
19:00 8.8 6.5 8.8 SO 14.8 -- 38.9 100 700(0.1/3h) -- -- -- --
18:00 9.3 6.1 6.9 O 24.1 -- 50.0 85 700(0.3/3h) -- -- -- --
17:00 9.2 5.8 8.8 ESE 25.9 -- 35.2 97 700(-1.2/3h) -- -- -- --
16:00 9.5 7.6 8.8 SE 13.0 -- 38.9 95 700(-0.6/3h) -- -- -- --
15:00 9.3 6.5 8.5 SE 20.4 -- 42.6 95 700(-1.4/3h) -- -- -- --
14:00 10.1 7.5 8.2 SE 20.4 -- 40.7 88 700(-1.1/3h) -- -- -- --
13:00 10.7 8.4 7.9 SE 18.5 -- 42.6 83 700(-0.9/3h) -- -- -- --
12:00 10.7 9.3 7.8 SE 11.1 -- 31.5 82 700(-0.4/3h) -- -- -- --
11:00 11.1 9.8 7.9 SE 11.1 -- 29.6 81 700(0.0/3h) -- -- -- --
10:00 9.9 8.3 7.1 SE 11.1 -- 25.9 83 700(0.3/3h) -- -- -- --
09:00 9.4 8 7.2 SE 9.3 -- 22.2 86 700(0.2/3h) -- -- -- --
08:00 9.5 7.6 7.1 SE 13.0 -- 22.2 85 700(0.2/3h) -- -- -- --
07:00 9.2 7.5 5.7 SE 11.1 -- 22.2 79 700(0.1/3h) -- -- -- --
06:00 8.8 7.3 1.4 SSE 9.3 -- 35.2 60 700(0.0/3h) -- -- -- --
05:00 8.2 7.5 0.4 S 5.6 -- 9.3 58 700(-0.4/3h) -- -- -- --
04:00 8.0 6.4 0.7 NO 9.3 -- 24.1 60 700(-0.7/3h) -- -- -- --
03:00 8.0 5.2 1.0 NO 16.7 -- 35.2 61 700(-0.9/3h) -- -- -- --
02:00 8.1 5.9 0.7 ONO 13.0 -- 27.8 59 700(-0.8/3h) -- -- -- --
01:00 8.2 5.7 0.9 NO 14.8 -- 35.2 60 700(-0.6/3h) -- -- -- --
01:00 8.2 5.7 0.9 NO 14.8 -- 35.2 60 700(-0.6/3h) -- -- -- --

1 Coordinated Universal Time. Actuellement il est 23:00 locale et 21:00 UTC.

2 Le vent souffle depuis la direction indiquée vers la direction oposée.

3 Les rafales max. sont disponible 40 min après l'heure du relevé.

4 Pour les stations d'altitude (plus de 600m) le géopotentiel du niveau le plus proche de la pression obligatoire est indiqué.

5 Les stations disposant d'un diffuseur peuvent indiquer "trace". Cela signifie que des précipitations ont touchés le sol mais que la quantité est inférieure à 0.1 mm.

Copyright

Les données affichées sur cette page sont la propriété exclusive de Météo Suisse.

Récapitulatif de la journée
Température [°C] Vent [km/h] Ensoleillement4 [h] Precipitations totale5 [mm] Pression [Hpa]
Min1 Max.2 Moy.3 Max. Min Max.
7.8 11.6 0 50.0 4 h 30 min 0 700.0 700.0

1 Température minimale relevée entre 18:00 UTC la veille et 18:00 UTC le jour donné.

2 Température maximale relevée entre 06:00 UTC le jour donné et 06:00 UTC le lendemain.

3 Vent moyen de la journée basé sur les relevés horaires.

4 Ensoleillement en heures relevé entre 06:00 UTC la veille et 06:00 UTC le jour donné.

5 Précipitations totales tombées entre 06:00 UTC la jour donné et 06:00 UTC le lendemain.

Graphiques horaires